createdAt,value
2022-09-21T00:01:43.746Z,79.95
2022-09-21T00:04:51.316Z,79.92
2022-09-21T00:07:57.716Z,79.87
2022-09-21T00:11:06.886Z,79.87
2022-09-21T00:14:17.224Z,79.97
2022-09-21T00:17:23.451Z,80.10
2022-09-21T00:20:31.575Z,80.02
2022-09-21T00:23:37.105Z,79.99
2022-09-21T00:26:43.712Z,80.01
2022-09-21T00:29:48.998Z,80.03
2022-09-21T00:32:55.268Z,80.01
2022-09-21T00:36:01.178Z,80.05
2022-09-21T00:39:12.016Z,80.06
2022-09-21T00:42:19.902Z,80.00
2022-09-21T00:45:31.134Z,79.98
2022-09-21T00:48:36.488Z,79.99
2022-09-21T00:51:42.004Z,80.06
2022-09-21T00:54:55.547Z,80.18
2022-09-21T00:58:06.577Z,80.28
2022-09-21T01:01:12.419Z,80.32
2022-09-21T01:04:18.835Z,80.37
2022-09-21T01:07:27.849Z,80.42
2022-09-21T01:10:33.908Z,80.37
2022-09-21T01:13:52.919Z,80.34
2022-09-21T01:17:25.097Z,80.35
2022-09-21T01:20:40.650Z,80.35
2022-09-21T01:23:56.590Z,80.37
2022-09-21T01:27:22.038Z,80.37
2022-09-21T01:30:30.090Z,80.40
2022-09-21T01:33:41.765Z,80.37
2022-09-21T01:36:47.309Z,80.34
2022-09-21T01:39:53.420Z,80.34
2022-09-21T01:42:59.338Z,80.34
2022-09-21T01:46:08.573Z,80.39
2022-09-21T01:49:18.695Z,80.39
2022-09-21T01:52:41.052Z,80.40
2022-09-21T01:55:53.156Z,80.43
2022-09-21T01:59:15.281Z,80.46
2022-09-21T02:02:38.488Z,80.51
2022-09-21T02:05:44.510Z,80.50
2022-09-21T02:08:52.048Z,80.52
2022-09-21T02:11:57.920Z,80.54
2022-09-21T02:15:03.806Z,80.58
2022-09-21T02:18:22.948Z,80.51
2022-09-21T02:21:48.100Z,80.44
2022-09-21T02:25:10.330Z,80.39
2022-09-21T02:28:33.409Z,80.38
2022-09-21T02:32:05.241Z,80.38
2022-09-21T02:35:36.833Z,80.39
2022-09-21T02:38:55.046Z,80.50
2022-09-21T02:42:26.845Z,80.58
2022-09-21T02:45:48.177Z,80.66
2022-09-21T02:49:04.554Z,80.73
2022-09-21T02:52:16.440Z,80.68
2022-09-21T02:55:22.905Z,80.61
2022-09-21T02:58:29.649Z,80.53
2022-09-21T03:01:36.396Z,80.47
2022-09-21T03:04:42.253Z,80.38
2022-09-21T03:07:47.424Z,80.35
2022-09-21T03:10:53.966Z,80.39
2022-09-21T03:13:59.774Z,80.38
2022-09-21T03:17:07.464Z,80.41
2022-09-21T03:20:16.068Z,80.48
2022-09-21T03:23:20.814Z,80.52
2022-09-21T03:26:30.135Z,80.52
2022-09-21T03:29:35.229Z,80.34
2022-09-21T03:32:41.601Z,80.22
2022-09-21T03:35:46.966Z,80.14
2022-09-21T03:38:53.729Z,80.15
2022-09-21T03:41:58.960Z,80.23
2022-09-21T03:45:05.919Z,80.23
2022-09-21T03:48:13.754Z,80.25
2022-09-21T03:51:19.806Z,80.29
2022-09-21T03:54:25.755Z,80.30
2022-09-21T03:57:34.099Z,80.34
2022-09-21T04:00:40.165Z,80.36
2022-09-21T04:03:46.289Z,80.30
2022-09-21T04:06:53.980Z,80.36
2022-09-21T04:10:00.815Z,80.43
2022-09-21T04:13:07.893Z,80.53
2022-09-21T04:16:14.388Z,80.56
2022-09-21T04:19:20.979Z,80.52
2022-09-21T04:22:28.135Z,80.51
2022-09-21T04:25:32.716Z,80.53
2022-09-21T04:28:40.114Z,80.62
2022-09-21T04:31:47.455Z,80.74
2022-09-21T04:34:54.098Z,80.76
2022-09-21T04:38:01.651Z,80.75
2022-09-21T04:41:11.733Z,80.80
2022-09-21T04:44:18.285Z,80.91
2022-09-21T04:47:31.888Z,80.99
2022-09-21T04:50:38.166Z,80.99
2022-09-21T04:53:45.353Z,81.05
2022-09-21T04:56:51.037Z,81.07
2022-09-21T04:59:59.192Z,80.98
2022-09-21T05:03:05.797Z,80.88
2022-09-21T05:06:13.536Z,80.90
2022-09-21T05:09:36.342Z,80.91
2022-09-21T05:12:42.419Z,80.97
2022-09-21T05:15:47.699Z,80.98
2022-09-21T05:18:52.562Z,80.98
2022-09-21T05:21:59.006Z,81.06
2022-09-21T05:25:04.355Z,81.14
2022-09-21T05:28:09.850Z,81.19
2022-09-21T05:32:04.306Z,81.22
2022-09-21T05:35:54.414Z,81.25
2022-09-21T05:39:02.982Z,81.20
2022-09-21T05:42:08.552Z,81.21
2022-09-21T05:45:15.642Z,81.11
2022-09-21T05:48:39.748Z,81.06
2022-09-21T05:51:57.378Z,81.03
2022-09-21T05:55:33.219Z,80.86
2022-09-21T05:58:52.948Z,80.81
2022-09-21T06:02:25.561Z,80.71
2022-09-21T06:05:32.864Z,80.68
2022-09-21T06:08:39.805Z,80.69
2022-09-21T06:11:47.133Z,80.67
2022-09-21T06:14:53.899Z,80.70
2022-09-21T06:17:59.676Z,80.71
2022-09-21T06:21:05.358Z,80.76
2022-09-21T06:24:13.105Z,80.74
2022-09-21T06:27:17.919Z,80.65
2022-09-21T06:30:26.549Z,80.57
2022-09-21T06:33:31.941Z,80.49
2022-09-21T06:36:41.568Z,80.40
2022-09-21T06:39:52.101Z,80.37
2022-09-21T06:43:03.970Z,80.34
2022-09-21T06:46:15.169Z,80.35
2022-09-21T06:49:21.363Z,80.38
2022-09-21T06:52:26.429Z,80.38
2022-09-21T06:55:32.824Z,80.44
2022-09-21T06:58:51.059Z,80.39
2022-09-21T07:02:05.530Z,80.38
2022-09-21T07:05:11.647Z,80.39
2022-09-21T07:11:30.865Z,80.61
2022-09-21T07:14:43.242Z,80.66
2022-09-21T07:18:04.804Z,80.55
2022-09-21T07:21:01.701Z,80.43
2022-09-21T07:24:16.269Z,80.32
2022-09-21T07:27:24.392Z,80.27
2022-09-21T07:30:32.757Z,80.23
2022-09-21T07:33:41.044Z,80.32
2022-09-21T07:36:49.551Z,80.25
2022-09-21T07:39:55.415Z,80.24
2022-09-21T07:43:17.585Z,80.30
2022-09-21T07:46:42.754Z,80.31
2022-09-21T07:49:50.185Z,80.26
2022-09-21T07:52:57.179Z,80.26
2022-09-21T07:56:03.160Z,80.23
2022-09-21T07:59:13.698Z,80.17
2022-09-21T08:02:20.334Z,80.33
2022-09-21T08:05:28.653Z,80.45
2022-09-21T08:08:36.352Z,80.31
2022-09-21T08:11:44.891Z,80.27
2022-09-21T08:14:50.517Z,80.20
2022-09-21T08:17:59.198Z,80.12
2022-09-21T08:21:15.635Z,80.09
2022-09-21T08:24:25.040Z,80.16
2022-09-21T08:27:35.484Z,80.03
2022-09-21T08:30:42.169Z,80.16
2022-09-21T08:33:48.567Z,80.16
2022-09-21T08:36:55.872Z,80.11
2022-09-21T08:40:02.465Z,80.09
2022-09-21T08:43:17.753Z,80.03
2022-09-21T08:46:31.720Z,79.92
2022-09-21T08:49:39.926Z,79.78
2022-09-21T08:52:47.966Z,79.82
2022-09-21T08:55:54.372Z,79.71
2022-09-21T08:59:01.963Z,79.48
2022-09-21T09:02:34.383Z,79.32
2022-09-21T09:06:26.665Z,79.30
2022-09-21T09:10:03.719Z,79.25
2022-09-21T09:13:42.289Z,79.18
2022-09-21T09:17:06.779Z,79.14
2022-09-21T09:20:39.308Z,79.02
2022-09-21T09:23:56.848Z,79.02
2022-09-21T09:27:10.287Z,79.06
2022-09-21T09:30:33.424Z,79.09
2022-09-21T09:33:46.174Z,79.12
2022-09-21T09:37:00.392Z,78.99
2022-09-21T09:40:06.028Z,78.98
2022-09-21T09:43:20.142Z,78.91
2022-09-21T09:46:37.717Z,78.87
2022-09-21T09:50:17.715Z,78.90
2022-09-21T09:53:33.981Z,78.90
2022-09-21T09:56:41.071Z,78.98
2022-09-21T09:59:59.014Z,79.08
2022-09-21T10:03:09.371Z,79.10
2022-09-21T10:06:14.820Z,79.17
2022-09-21T10:09:46.767Z,79.16
2022-09-21T10:16:41.419Z,79.31
2022-09-21T10:19:47.907Z,79.29
2022-09-21T10:22:56.563Z,79.23
2022-09-21T10:26:15.640Z,79.12
2022-09-21T10:29:39.683Z,79.00
2022-09-21T10:33:12.831Z,78.89
2022-09-21T10:36:41.682Z,78.93
2022-09-21T10:43:35.919Z,79.01
2022-09-21T10:46:53.578Z,79.01
2022-09-21T10:53:53.853Z,78.89
2022-09-21T10:57:07.454Z,78.91
2022-09-21T11:00:12.719Z,78.90
2022-09-21T11:03:54.671Z,78.80
2022-09-21T11:07:03.225Z,78.69
2022-09-21T11:10:34.130Z,78.65
2022-09-21T11:14:11.500Z,78.51
2022-09-21T11:17:28.442Z,78.46
2022-09-21T11:21:06.791Z,78.35
2022-09-21T11:24:33.037Z,78.34
2022-09-21T11:27:47.815Z,78.24
2022-09-21T11:30:58.508Z,78.11
2022-09-21T11:34:26.031Z,78.16
2022-09-21T11:37:53.630Z,78.26
2022-09-21T11:41:17.535Z,78.34
2022-09-21T11:44:58.294Z,78.37
2022-09-21T11:48:41.788Z,78.39
2022-09-21T11:52:18.759Z,78.43
2022-09-21T11:55:45.166Z,78.45
2022-09-21T11:59:20.092Z,78.42
2022-09-21T12:02:58.541Z,78.39
2022-09-21T12:06:16.481Z,78.36
2022-09-21T12:09:46.354Z,78.42
2022-09-21T12:13:04.697Z,78.38
2022-09-21T12:16:23.258Z,78.14
2022-09-21T12:19:40.661Z,78.01
2022-09-21T12:22:56.096Z,77.95
2022-09-21T12:26:05.460Z,77.90
2022-09-21T12:29:20.467Z,77.84
2022-09-21T12:32:36.907Z,77.85
2022-09-21T12:36:12.994Z,77.91
2022-09-21T12:39:29.934Z,77.98
2022-09-21T12:42:40.747Z,77.91
2022-09-21T12:49:51.846Z,77.84
2022-09-21T12:53:06.763Z,77.81
2022-09-21T12:56:23.576Z,77.73
2022-09-21T12:59:59.293Z,77.73
2022-09-21T13:03:20.409Z,77.79
2022-09-21T13:07:19.356Z,77.80
2022-09-21T13:11:02.194Z,77.71
2022-09-21T13:14:18.422Z,77.74
2022-09-21T13:17:35.747Z,77.71
2022-09-21T13:20:53.661Z,77.73
2022-09-21T13:24:15.640Z,77.67
2022-09-21T13:27:25.762Z,77.57
2022-09-21T13:30:48.334Z,77.49
2022-09-21T13:33:55.020Z,77.42
2022-09-21T13:37:02.834Z,77.29
2022-09-21T13:40:19.685Z,77.27
2022-09-21T13:43:32.156Z,77.22
2022-09-21T13:46:55.733Z,77.17
2022-09-21T13:50:04.814Z,77.10
2022-09-21T13:53:23.543Z,76.97
2022-09-21T13:56:40.440Z,76.92
2022-09-21T13:59:47.946Z,76.79
2022-09-21T14:03:01.116Z,76.82
2022-09-21T14:06:38.976Z,76.84
2022-09-21T14:09:48.709Z,76.87
2022-09-21T14:12:57.558Z,76.77
2022-09-21T14:16:04.295Z,76.83
2022-09-21T14:19:10.147Z,76.82
2022-09-21T14:22:27.160Z,76.82
2022-09-21T14:25:43.462Z,76.80
2022-09-21T14:28:54.390Z,76.74
2022-09-21T14:32:00.183Z,76.79
2022-09-21T14:35:08.862Z,76.77
2022-09-21T14:38:21.843Z,76.76
2022-09-21T14:41:30.723Z,76.75
2022-09-21T14:44:39.638Z,76.73
2022-09-21T14:48:10.332Z,76.60
2022-09-21T14:51:27.094Z,76.60
2022-09-21T14:54:59.945Z,76.67
2022-09-21T14:58:35.195Z,76.75
2022-09-21T15:01:53.534Z,76.78
2022-09-21T15:05:23.045Z,76.72
2022-09-21T15:09:20.456Z,76.78
2022-09-21T15:12:34.893Z,76.84
2022-09-21T15:16:16.202Z,76.94
2022-09-21T15:19:40.908Z,76.90
2022-09-21T15:22:48.778Z,76.79
2022-09-21T15:25:55.346Z,76.74
2022-09-21T15:29:10.955Z,76.67
2022-09-21T15:32:12.454Z,76.63
2022-09-21T15:35:22.492Z,76.66
2022-09-21T15:38:48.075Z,76.71
2022-09-21T15:41:59.888Z,76.75
2022-09-21T15:45:26.663Z,76.79
2022-09-21T15:48:31.658Z,76.76
2022-09-21T15:51:47.334Z,76.62
2022-09-21T15:54:59.743Z,76.32
2022-09-21T15:58:07.312Z,76.05
2022-09-21T16:01:13.534Z,75.89
2022-09-21T16:04:22.343Z,75.86
2022-09-21T16:07:46.197Z,75.92
2022-09-21T16:10:55.936Z,75.74
2022-09-21T16:14:19.621Z,75.58
2022-09-21T16:17:34.271Z,75.63
2022-09-21T16:20:43.937Z,75.78
2022-09-21T16:23:51.074Z,75.88
2022-09-21T16:26:57.211Z,75.87
2022-09-21T16:30:03.331Z,75.98
2022-09-21T16:33:11.278Z,76.06
2022-09-21T16:36:19.053Z,76.05
2022-09-21T16:39:25.230Z,75.98
2022-09-21T16:42:30.985Z,75.96
2022-09-21T16:45:43.791Z,75.96
2022-09-21T16:48:50.987Z,76.11
2022-09-21T16:51:57.711Z,76.28
2022-09-21T16:55:05.636Z,76.40
2022-09-21T16:58:12.570Z,76.40
2022-09-21T17:01:19.795Z,76.47
2022-09-21T17:04:27.414Z,76.51
2022-09-21T17:07:34.859Z,76.52
2022-09-21T17:10:49.533Z,76.45
2022-09-21T17:13:55.756Z,76.55
2022-09-21T17:17:10.676Z,76.72
2022-09-21T17:20:19.065Z,76.81
2022-09-21T17:23:26.404Z,76.81
2022-09-21T17:26:33.072Z,76.80
2022-09-21T17:29:44.138Z,76.80
2022-09-21T17:32:50.202Z,76.79
2022-09-21T17:36:01.691Z,76.85
2022-09-21T17:39:07.888Z,77.01
2022-09-21T17:42:33.078Z,77.17
2022-09-21T17:45:46.999Z,77.21
2022-09-21T17:48:52.299Z,77.05
2022-09-21T17:52:15.850Z,76.82
2022-09-21T17:55:23.222Z,76.85
2022-09-21T17:59:01.006Z,76.89
2022-09-21T18:02:10.849Z,76.80
2022-09-21T18:05:18.715Z,76.79
2022-09-21T18:08:24.259Z,76.73
2022-09-21T18:11:40.183Z,76.79
2022-09-21T18:15:01.692Z,76.85
2022-09-21T18:18:41.202Z,76.98
2022-09-21T18:21:49.004Z,77.12
2022-09-21T18:24:55.321Z,77.28
2022-09-21T18:28:02.539Z,77.43
2022-09-21T18:31:25.105Z,77.54
2022-09-21T18:34:52.294Z,77.60
2022-09-21T18:38:25.351Z,77.63
2022-09-21T18:41:40.962Z,77.65
2022-09-21T18:44:59.307Z,77.70
2022-09-21T18:48:22.094Z,77.81
2022-09-21T18:51:59.413Z,77.80
2022-09-21T18:55:07.753Z,77.67
2022-09-21T18:58:14.723Z,77.75
2022-09-21T19:01:23.779Z,77.75
2022-09-21T19:04:33.781Z,77.75
2022-09-21T19:07:50.473Z,77.63
2022-09-21T19:11:04.986Z,77.59
2022-09-21T19:14:31.402Z,77.70
2022-09-21T19:18:08.186Z,77.67
2022-09-21T19:21:28.935Z,77.62
2022-09-21T19:24:49.925Z,77.75
2022-09-21T19:28:02.998Z,77.84
2022-09-21T19:31:10.711Z,77.89
2022-09-21T19:34:33.214Z,77.85
2022-09-21T19:37:40.034Z,77.84
2022-09-21T19:40:47.872Z,77.84
2022-09-21T19:44:07.604Z,77.92
2022-09-21T19:47:18.097Z,77.94
2022-09-21T19:50:54.192Z,78.06
2022-09-21T19:54:19.320Z,78.16
2022-09-21T19:57:47.957Z,78.13
2022-09-21T20:00:53.890Z,78.06
2022-09-21T20:04:01.075Z,78.18
2022-09-21T20:07:12.109Z,78.16
2022-09-21T20:10:39.151Z,78.17
2022-09-21T20:14:08.226Z,78.23
2022-09-21T20:17:19.103Z,78.33
2022-09-21T20:20:40.535Z,78.38
2022-09-21T20:23:52.127Z,78.43
2022-09-21T20:26:58.522Z,78.48
2022-09-21T20:30:05.857Z,78.51
2022-09-21T20:33:21.369Z,78.54
2022-09-21T20:36:30.884Z,78.52
2022-09-21T20:39:36.647Z,78.46
2022-09-21T20:42:44.511Z,78.49
2022-09-21T20:45:54.020Z,78.49
2022-09-21T20:49:02.777Z,78.54
2022-09-21T20:52:08.943Z,78.64
2022-09-21T20:55:15.794Z,78.74
2022-09-21T20:58:21.471Z,78.85
2022-09-21T21:01:27.900Z,78.93
2022-09-21T21:04:34.211Z,78.98
2022-09-21T21:07:40.163Z,78.99
2022-09-21T21:10:46.446Z,79.00
2022-09-21T21:13:52.311Z,79.04
2022-09-21T21:16:59.938Z,79.07
2022-09-21T21:20:05.590Z,79.10
2022-09-21T21:23:11.282Z,79.08
2022-09-21T21:26:33.345Z,79.08
2022-09-21T21:29:28.912Z,79.05
2022-09-21T21:32:38.472Z,79.07
2022-09-21T21:35:44.302Z,79.07
2022-09-21T21:38:51.879Z,79.06
2022-09-21T21:41:57.552Z,79.01
2022-09-21T21:45:04.413Z,78.91
2022-09-21T21:48:11.184Z,78.84
2022-09-21T21:51:19.995Z,78.78
2022-09-21T21:54:26.613Z,78.88
2022-09-21T21:57:32.076Z,79.00
2022-09-21T22:00:38.741Z,79.02
2022-09-21T22:03:46.138Z,79.03
2022-09-21T22:06:52.885Z,78.92
2022-09-21T22:10:00.042Z,78.96
2022-09-21T22:13:07.256Z,79.04
2022-09-21T22:16:24.715Z,79.12
2022-09-21T22:19:32.143Z,79.14
2022-09-21T22:22:38.560Z,79.22
2022-09-21T22:25:46.700Z,79.29
2022-09-21T22:28:54.716Z,79.34
2022-09-21T22:32:04.128Z,79.36
2022-09-21T22:35:10.359Z,79.40
2022-09-21T22:38:19.206Z,79.39
2022-09-21T22:41:28.257Z,79.41
2022-09-21T22:44:34.431Z,79.36
2022-09-21T22:47:41.189Z,79.21
2022-09-21T22:50:46.484Z,79.12
2022-09-21T22:53:51.741Z,79.05
2022-09-21T22:56:58.060Z,79.10
2022-09-21T23:00:04.583Z,79.21
2022-09-21T23:03:10.533Z,79.26
2022-09-21T23:06:15.900Z,79.29
2022-09-21T23:09:25.596Z,79.28
2022-09-21T23:12:31.517Z,79.33
2022-09-21T23:15:37.409Z,79.32
2022-09-21T23:18:43.740Z,79.18
2022-09-21T23:21:49.053Z,79.18
2022-09-21T23:24:55.689Z,79.17
2022-09-21T23:28:02.789Z,79.16
2022-09-21T23:31:10.434Z,79.14
2022-09-21T23:34:20.160Z,79.20
2022-09-21T23:37:26.023Z,79.30
2022-09-21T23:40:33.581Z,79.29
2022-09-21T23:43:39.290Z,79.25
2022-09-21T23:46:48.839Z,79.16
2022-09-21T23:49:56.017Z,79.02
2022-09-21T23:53:01.638Z,78.89
2022-09-21T23:56:07.852Z,78.85
2022-09-21T23:59:14.900Z,78.87
